Terminal Aerodrome Forecast
Issued by NWS Charleston, WV

Current Version | Previous Version | Graphics & Text | Print | Product List | Glossary On
Versions: 1 2 3 4 5 6 7 8 9 10 11 12 13 14 15 16 17 18 19 20 21 22 23
991
FTUS41 KRLX 240524
TAFEKN
TAF
KEKN 240524Z 2406/2506 33005KT 6SM SHRA BR SCT015 BKN035
     FM241000 28006KT 4SM BR OVC010
     FM241200 29006KT P6SM BKN008
     FM241700 28007KT P6SM SCT025=

USA.gov is the U.S. government's official web portal to all federal, state and local government web resources and services.